sensor_id;sensor_type;location;lat;lon;timestamp;temperature;humidity
1021;DHT22;499;42.648;23.270;2022-10-16T00:01:08;7.60;99.90
1021;DHT22;499;42.648;23.270;2022-10-16T00:03:36;7.50;99.90
1021;DHT22;499;42.648;23.270;2022-10-16T00:06:05;7.50;99.90
1021;DHT22;499;42.648;23.270;2022-10-16T00:08:32;7.50;99.90
1021;DHT22;499;42.648;23.270;2022-10-16T00:11:03;7.60;99.90
1021;DHT22;499;42.648;23.270;2022-10-16T00:13:31;7.60;99.90
1021;DHT22;499;42.648;23.270;2022-10-16T00:16:00;7.60;99.90
1021;DHT22;499;42.648;23.270;2022-10-16T00:18:28;7.40;99.90
1021;DHT22;499;42.648;23.270;2022-10-16T00:21:02;7.40;99.90
1021;DHT22;499;42.648;23.270;2022-10-16T00:23:29;7.40;99.90
1021;DHT22;499;42.648;23.270;2022-10-16T00:25:57;7.40;99.90
1021;DHT22;499;42.648;23.270;2022-10-16T00:28:26;7.30;99.90
1021;DHT22;499;42.648;23.270;2022-10-16T00:30:53;7.20;99.90
1021;DHT22;499;42.648;23.270;2022-10-16T00:33:21;7.20;99.90
1021;DHT22;499;42.648;23.270;2022-10-16T00:35:48;7.20;99.90
1021;DHT22;499;42.648;23.270;2022-10-16T00:38:16;7.10;99.90
1021;DHT22;499;42.648;23.270;2022-10-16T00:40:43;7.20;99.90
1021;DHT22;499;42.648;23.270;2022-10-16T00:45:58;7.20;99.90
1021;DHT22;499;42.648;23.270;2022-10-16T00:48:25;7.20;99.90
1021;DHT22;499;42.648;23.270;2022-10-16T00:50:53;7.30;99.90
1021;DHT22;499;42.648;23.270;2022-10-16T00:53:21;7.30;99.90
1021;DHT22;499;42.648;23.270;2022-10-16T00:55:49;7.20;99.90
1021;DHT22;499;42.648;23.270;2022-10-16T00:58:16;7.20;99.90
1021;DHT22;499;42.648;23.270;2022-10-16T01:00:43;7.20;99.90
1021;DHT22;499;42.648;23.270;2022-10-16T01:03:26;7.30;99.90
1021;DHT22;499;42.648;23.270;2022-10-16T01:06:02;7.20;99.90
1021;DHT22;499;42.648;23.270;2022-10-16T01:08:39;7.20;99.90
1021;DHT22;499;42.648;23.270;2022-10-16T01:11:16;7.20;99.90
1021;DHT22;499;42.648;23.270;2022-10-16T01:13:48;7.20;99.90
1021;DHT22;499;42.648;23.270;2022-10-16T01:16:22;7.20;99.90
1021;DHT22;499;42.648;23.270;2022-10-16T01:18:56;7.10;99.90
1021;DHT22;499;42.648;23.270;2022-10-16T01:21:26;6.90;99.90
1021;DHT22;499;42.648;23.270;2022-10-16T01:24:03;7.00;99.90
1021;DHT22;499;42.648;23.270;2022-10-16T01:26:42;6.90;99.90
1021;DHT22;499;42.648;23.270;2022-10-16T01:29:16;6.90;99.90
1021;DHT22;499;42.648;23.270;2022-10-16T01:31:50;7.00;99.90
1021;DHT22;499;42.648;23.270;2022-10-16T01:34:22;7.10;99.90
1021;DHT22;499;42.648;23.270;2022-10-16T01:36:55;6.90;99.90
1021;DHT22;499;42.648;23.270;2022-10-16T01:39:25;6.90;99.90
1021;DHT22;499;42.648;23.270;2022-10-16T01:42:00;6.90;99.90
1021;DHT22;499;42.648;23.270;2022-10-16T01:44:32;7.00;99.90
1021;DHT22;499;42.648;23.270;2022-10-16T01:47:00;7.00;99.90
1021;DHT22;499;42.648;23.270;2022-10-16T01:49:31;6.90;99.90
1021;DHT22;499;42.648;23.270;2022-10-16T01:52:10;6.90;99.90
1021;DHT22;499;42.648;23.270;2022-10-16T01:54:41;6.90;99.90
1021;DHT22;499;42.648;23.270;2022-10-16T01:57:10;6.80;99.90
1021;DHT22;499;42.648;23.270;2022-10-16T01:59:43;6.90;99.90
1021;DHT22;499;42.648;23.270;2022-10-16T02:02:13;6.80;99.90
1021;DHT22;499;42.648;23.270;2022-10-16T02:04:45;6.70;99.90
1021;DHT22;499;42.648;23.270;2022-10-16T02:07:13;6.60;99.90
1021;DHT22;499;42.648;23.270;2022-10-16T02:09:40;6.70;99.90
1021;DHT22;499;42.648;23.270;2022-10-16T02:12:12;6.70;99.90
1021;DHT22;499;42.648;23.270;2022-10-16T02:14:42;6.80;99.90
1021;DHT22;499;42.648;23.270;2022-10-16T02:17:13;6.70;99.90
1021;DHT22;499;42.648;23.270;2022-10-16T02:19:41;6.80;99.90
1021;DHT22;499;42.648;23.270;2022-10-16T02:22:12;6.80;99.90
1021;DHT22;499;42.648;23.270;2022-10-16T02:24:48;6.80;99.90
1021;DHT22;499;42.648;23.270;2022-10-16T02:27:21;6.80;99.90
1021;DHT22;499;42.648;23.270;2022-10-16T02:29:55;6.90;99.90
1021;DHT22;499;42.648;23.270;2022-10-16T02:32:27;6.90;99.90
1021;DHT22;499;42.648;23.270;2022-10-16T02:34:56;6.90;99.90
1021;DHT22;499;42.648;23.270;2022-10-16T02:37:26;6.90;99.90
1021;DHT22;499;42.648;23.270;2022-10-16T02:39:55;6.90;99.90
1021;DHT22;499;42.648;23.270;2022-10-16T02:42:27;6.90;99.90
1021;DHT22;499;42.648;23.270;2022-10-16T02:44:56;6.70;99.90
1021;DHT22;499;42.648;23.270;2022-10-16T02:47:23;6.70;99.90
1021;DHT22;499;42.648;23.270;2022-10-16T02:49:50;6.70;99.90
1021;DHT22;499;42.648;23.270;2022-10-16T02:52:17;6.80;99.90
1021;DHT22;499;42.648;23.270;2022-10-16T02:54:44;6.70;99.90
1021;DHT22;499;42.648;23.270;2022-10-16T02:57:11;6.70;99.90
1021;DHT22;499;42.648;23.270;2022-10-16T02:59:38;6.60;99.90
1021;DHT22;499;42.648;23.270;2022-10-16T03:02:07;6.60;99.90
1021;DHT22;499;42.648;23.270;2022-10-16T03:04:34;6.60;99.90
1021;DHT22;499;42.648;23.270;2022-10-16T03:07:01;6.70;99.90
1021;DHT22;499;42.648;23.270;2022-10-16T03:09:28;6.70;99.90
1021;DHT22;499;42.648;23.270;2022-10-16T03:11:55;6.70;99.90
1021;DHT22;499;42.648;23.270;2022-10-16T03:14:22;6.70;99.90
1021;DHT22;499;42.648;23.270;2022-10-16T03:16:49;6.60;99.90
1021;DHT22;499;42.648;23.270;2022-10-16T03:19:18;6.50;99.90
1021;DHT22;499;42.648;23.270;2022-10-16T03:21:45;6.40;99.90
1021;DHT22;499;42.648;23.270;2022-10-16T03:24:12;6.30;99.90
1021;DHT22;499;42.648;23.270;2022-10-16T03:26:40;6.20;99.90
1021;DHT22;499;42.648;23.270;2022-10-16T03:29:07;6.30;99.90
1021;DHT22;499;42.648;23.270;2022-10-16T03:31:34;6.20;99.90
1021;DHT22;499;42.648;23.270;2022-10-16T03:34:01;6.10;99.90
1021;DHT22;499;42.648;23.270;2022-10-16T03:36:29;6.10;99.90
1021;DHT22;499;42.648;23.270;2022-10-16T03:38:56;6.10;99.90
1021;DHT22;499;42.648;23.270;2022-10-16T03:41:23;6.20;99.90
1021;DHT22;499;42.648;23.270;2022-10-16T03:43:50;6.30;99.90
1021;DHT22;499;42.648;23.270;2022-10-16T03:46:18;6.20;99.90
1021;DHT22;499;42.648;23.270;2022-10-16T03:48:45;6.10;99.90
1021;DHT22;499;42.648;23.270;2022-10-16T03:51:12;6.00;99.90
1021;DHT22;499;42.648;23.270;2022-10-16T03:53:40;6.10;99.90
1021;DHT22;499;42.648;23.270;2022-10-16T03:56:07;6.10;99.90
1021;DHT22;499;42.648;23.270;2022-10-16T03:58:35;6.10;99.90
1021;DHT22;499;42.648;23.270;2022-10-16T04:01:02;6.00;99.90
1021;DHT22;499;42.648;23.270;2022-10-16T04:03:30;6.00;99.90
1021;DHT22;499;42.648;23.270;2022-10-16T04:05:57;6.10;99.90
1021;DHT22;499;42.648;23.270;2022-10-16T04:08:24;6.20;99.90
1021;DHT22;499;42.648;23.270;2022-10-16T04:10:53;6.20;99.90
1021;DHT22;499;42.648;23.270;2022-10-16T04:13:20;6.20;99.90
1021;DHT22;499;42.648;23.270;2022-10-16T04:15:47;6.10;99.90
1021;DHT22;499;42.648;23.270;2022-10-16T04:18:14;6.00;99.90
1021;DHT22;499;42.648;23.270;2022-10-16T04:20:41;6.00;99.90
1021;DHT22;499;42.648;23.270;2022-10-16T04:23:08;6.00;99.90
1021;DHT22;499;42.648;23.270;2022-10-16T04:25:35;6.20;99.90
1021;DHT22;499;42.648;23.270;2022-10-16T04:28:04;6.20;99.90
1021;DHT22;499;42.648;23.270;2022-10-16T04:30:31;6.10;99.90
1021;DHT22;499;42.648;23.270;2022-10-16T04:32:59;6.20;99.90
1021;DHT22;499;42.648;23.270;2022-10-16T04:35:26;6.10;99.90
1021;DHT22;499;42.648;23.270;2022-10-16T04:37:53;6.10;99.90
1021;DHT22;499;42.648;23.270;2022-10-16T04:40:20;6.00;99.90
1021;DHT22;499;42.648;23.270;2022-10-16T04:42:47;6.00;99.90
1021;DHT22;499;42.648;23.270;2022-10-16T04:45:15;6.00;99.90
1021;DHT22;499;42.648;23.270;2022-10-16T04:47:43;5.90;99.90
1021;DHT22;499;42.648;23.270;2022-10-16T04:50:10;6.00;99.90
1021;DHT22;499;42.648;23.270;2022-10-16T04:52:37;6.00;99.90
1021;DHT22;499;42.648;23.270;2022-10-16T04:55:05;6.10;99.90
1021;DHT22;499;42.648;23.270;2022-10-16T04:57:32;6.00;99.90
1021;DHT22;499;42.648;23.270;2022-10-16T04:59:59;6.00;99.90
1021;DHT22;499;42.648;23.270;2022-10-16T05:02:29;6.00;99.90
1021;DHT22;499;42.648;23.270;2022-10-16T05:04:57;6.10;99.90
1021;DHT22;499;42.648;23.270;2022-10-16T05:07:24;6.10;99.90
1021;DHT22;499;42.648;23.270;2022-10-16T05:09:51;6.30;99.90
1021;DHT22;499;42.648;23.270;2022-10-16T05:12:18;6.30;99.90
1021;DHT22;499;42.648;23.270;2022-10-16T05:14:46;6.30;99.90
1021;DHT22;499;42.648;23.270;2022-10-16T05:17:13;6.30;99.90
1021;DHT22;499;42.648;23.270;2022-10-16T05:19:41;6.40;99.90
1021;DHT22;499;42.648;23.270;2022-10-16T05:22:08;6.40;99.90
1021;DHT22;499;42.648;23.270;2022-10-16T05:24:35;6.50;99.90
1021;DHT22;499;42.648;23.270;2022-10-16T05:27:03;6.80;99.90
1021;DHT22;499;42.648;23.270;2022-10-16T05:29:30;7.20;99.90
1021;DHT22;499;42.648;23.270;2022-10-16T05:31:57;7.50;99.90
1021;DHT22;499;42.648;23.270;2022-10-16T05:34:24;7.60;99.90
1021;DHT22;499;42.648;23.270;2022-10-16T05:36:53;7.70;99.90
1021;DHT22;499;42.648;23.270;2022-10-16T05:39:20;7.70;99.90
1021;DHT22;499;42.648;23.270;2022-10-16T05:41:49;7.70;99.90
1021;DHT22;499;42.648;23.270;2022-10-16T05:44:18;7.70;99.90
1021;DHT22;499;42.648;23.270;2022-10-16T05:46:46;7.70;99.90
1021;DHT22;499;42.648;23.270;2022-10-16T05:49:13;7.70;99.90
1021;DHT22;499;42.648;23.270;2022-10-16T05:51:40;7.60;99.90
1021;DHT22;499;42.648;23.270;2022-10-16T05:54:09;7.70;99.90
1021;DHT22;499;42.648;23.270;2022-10-16T05:56:36;7.70;99.90
1021;DHT22;499;42.648;23.270;2022-10-16T05:59:04;7.70;99.90
1021;DHT22;499;42.648;23.270;2022-10-16T06:01:31;7.60;99.90
1021;DHT22;499;42.648;23.270;2022-10-16T06:03:58;7.60;99.90
1021;DHT22;499;42.648;23.270;2022-10-16T06:06:27;7.70;99.90
1021;DHT22;499;42.648;23.270;2022-10-16T06:08:56;7.80;99.90
1021;DHT22;499;42.648;23.270;2022-10-16T06:11:28;7.90;99.90
1021;DHT22;499;42.648;23.270;2022-10-16T06:13:57;8.00;99.90
1021;DHT22;499;42.648;23.270;2022-10-16T06:16:26;8.10;99.90
1021;DHT22;499;42.648;23.270;2022-10-16T06:18:54;8.10;99.90
1021;DHT22;499;42.648;23.270;2022-10-16T06:21:23;8.10;99.90
1021;DHT22;499;42.648;23.270;2022-10-16T06:23:52;8.10;99.90
1021;DHT22;499;42.648;23.270;2022-10-16T06:26:20;8.20;99.90
1021;DHT22;499;42.648;23.270;2022-10-16T06:28:49;8.10;99.90
1021;DHT22;499;42.648;23.270;2022-10-16T06:31:17;8.20;99.90
1021;DHT22;499;42.648;23.270;2022-10-16T06:33:45;8.30;99.90
1021;DHT22;499;42.648;23.270;2022-10-16T06:36:14;8.40;99.90
1021;DHT22;499;42.648;23.270;2022-10-16T06:38:42;8.40;99.90
1021;DHT22;499;42.648;23.270;2022-10-16T06:41:12;8.40;99.90
1021;DHT22;499;42.648;23.270;2022-10-16T06:43:39;8.40;99.90
1021;DHT22;499;42.648;23.270;2022-10-16T06:46:10;8.50;99.90
1021;DHT22;499;42.648;23.270;2022-10-16T06:48:38;8.70;99.90
1021;DHT22;499;42.648;23.270;2022-10-16T06:51:06;8.70;99.90
1021;DHT22;499;42.648;23.270;2022-10-16T06:53:36;8.80;99.90
1021;DHT22;499;42.648;23.270;2022-10-16T06:56:07;8.80;99.80
1021;DHT22;499;42.648;23.270;2022-10-16T06:58:35;8.70;99.80
1021;DHT22;499;42.648;23.270;2022-10-16T07:01:02;8.70;99.90
1021;DHT22;499;42.648;23.270;2022-10-16T07:03:31;8.80;99.90
1021;DHT22;499;42.648;23.270;2022-10-16T07:06:01;8.80;99.90
1021;DHT22;499;42.648;23.270;2022-10-16T07:08:31;8.90;99.90
1021;DHT22;499;42.648;23.270;2022-10-16T07:11:00;9.00;99.90
1021;DHT22;499;42.648;23.270;2022-10-16T07:13:27;9.10;99.80
1021;DHT22;499;42.648;23.270;2022-10-16T07:15:54;9.10;99.60
1021;DHT22;499;42.648;23.270;2022-10-16T07:18:21;9.20;98.10
1021;DHT22;499;42.648;23.270;2022-10-16T07:20:53;9.30;97.50
1021;DHT22;499;42.648;23.270;2022-10-16T07:23:20;9.40;94.80
1021;DHT22;499;42.648;23.270;2022-10-16T07:25:53;9.40;95.70
1021;DHT22;499;42.648;23.270;2022-10-16T07:28:21;9.50;94.60
1021;DHT22;499;42.648;23.270;2022-10-16T07:30:48;9.60;93.80
1021;DHT22;499;42.648;23.270;2022-10-16T07:33:16;9.60;94.50
1021;DHT22;499;42.648;23.270;2022-10-16T07:35:50;9.70;95.40
1021;DHT22;499;42.648;23.270;2022-10-16T07:38:19;9.90;95.10
1021;DHT22;499;42.648;23.270;2022-10-16T07:40:47;10.00;91.60
1021;DHT22;499;42.648;23.270;2022-10-16T07:43:14;10.10;90.80
1021;DHT22;499;42.648;23.270;2022-10-16T07:45:48;10.10;90.20
1021;DHT22;499;42.648;23.270;2022-10-16T07:48:16;10.10;89.80
1021;DHT22;499;42.648;23.270;2022-10-16T07:50:44;10.20;87.60
1021;DHT22;499;42.648;23.270;2022-10-16T07:53:11;10.30;88.60
1021;DHT22;499;42.648;23.270;2022-10-16T07:55:40;10.40;87.40
1021;DHT22;499;42.648;23.270;2022-10-16T07:58:07;10.50;82.00
1021;DHT22;499;42.648;23.270;2022-10-16T08:00:36;10.70;73.70
1021;DHT22;499;42.648;23.270;2022-10-16T08:03:03;10.70;75.50
1021;DHT22;499;42.648;23.270;2022-10-16T08:05:32;10.80;72.50
1021;DHT22;499;42.648;23.270;2022-10-16T08:07:59;10.80;74.30
1021;DHT22;499;42.648;23.270;2022-10-16T08:10:27;10.90;78.60
1021;DHT22;499;42.648;23.270;2022-10-16T08:12:56;11.00;75.20
1021;DHT22;499;42.648;23.270;2022-10-16T08:15:23;11.20;69.50
1021;DHT22;499;42.648;23.270;2022-10-16T08:17:58;11.30;67.40
1021;DHT22;499;42.648;23.270;2022-10-16T08:20:26;11.20;67.80
1021;DHT22;499;42.648;23.270;2022-10-16T08:22:53;11.30;63.40
1021;DHT22;499;42.648;23.270;2022-10-16T08:25:21;11.30;68.80
1021;DHT22;499;42.648;23.270;2022-10-16T08:27:48;11.50;60.90
1021;DHT22;499;42.648;23.270;2022-10-16T08:30:18;11.60;60.00
1021;DHT22;499;42.648;23.270;2022-10-16T08:32:46;11.60;57.40
1021;DHT22;499;42.648;23.270;2022-10-16T08:35:14;11.70;62.90
1021;DHT22;499;42.648;23.270;2022-10-16T08:37:42;11.70;61.80
1021;DHT22;499;42.648;23.270;2022-10-16T08:40:17;11.80;55.90
1021;DHT22;499;42.648;23.270;2022-10-16T08:42:57;11.80;53.50
1021;DHT22;499;42.648;23.270;2022-10-16T08:45:41;12.00;55.90
1021;DHT22;499;42.648;23.270;2022-10-16T08:48:17;12.20;51.60
1021;DHT22;499;42.648;23.270;2022-10-16T08:50:48;12.30;50.50
1021;DHT22;499;42.648;23.270;2022-10-16T08:53:19;12.50;51.90
1021;DHT22;499;42.648;23.270;2022-10-16T08:55:50;12.50;48.40
1021;DHT22;499;42.648;23.270;2022-10-16T08:58:19;12.60;47.40
1021;DHT22;499;42.648;23.270;2022-10-16T09:00:50;12.60;40.70
1021;DHT22;499;42.648;23.270;2022-10-16T09:03:32;12.80;38.20
1021;DHT22;499;42.648;23.270;2022-10-16T09:06:10;12.80;43.60
1021;DHT22;499;42.648;23.270;2022-10-16T09:08:51;12.80;39.50
1021;DHT22;499;42.648;23.270;2022-10-16T09:11:25;12.90;33.10
1021;DHT22;499;42.648;23.270;2022-10-16T09:14:02;12.90;26.00
1021;DHT22;499;42.648;23.270;2022-10-16T09:16:35;13.00;26.40
1021;DHT22;499;42.648;23.270;2022-10-16T09:19:10;13.10;26.30
1021;DHT22;499;42.648;23.270;2022-10-16T09:21:41;13.20;26.20
1021;DHT22;499;42.648;23.270;2022-10-16T09:24:11;13.20;25.00
1021;DHT22;499;42.648;23.270;2022-10-16T09:26:40;13.30;25.50
1021;DHT22;499;42.648;23.270;2022-10-16T09:29:10;13.30;24.50
1021;DHT22;499;42.648;23.270;2022-10-16T09:31:40;13.40;25.10
1021;DHT22;499;42.648;23.270;2022-10-16T09:34:17;13.40;21.70
1021;DHT22;499;42.648;23.270;2022-10-16T09:36:47;13.40;21.70
1021;DHT22;499;42.648;23.270;2022-10-16T09:39:15;13.50;21.20
1021;DHT22;499;42.648;23.270;2022-10-16T09:41:44;13.60;22.00
1021;DHT22;499;42.648;23.270;2022-10-16T09:44:19;13.80;20.30
1021;DHT22;499;42.648;23.270;2022-10-16T09:47:00;13.80;20.60
1021;DHT22;499;42.648;23.270;2022-10-16T09:49:27;13.90;20.90
1021;DHT22;499;42.648;23.270;2022-10-16T09:52:03;13.90;20.40
1021;DHT22;499;42.648;23.270;2022-10-16T09:54:31;14.00;21.80
1021;DHT22;499;42.648;23.270;2022-10-16T09:57:05;14.10;20.80
1021;DHT22;499;42.648;23.270;2022-10-16T09:59:33;14.10;19.10
1021;DHT22;499;42.648;23.270;2022-10-16T10:02:10;14.10;18.20
1021;DHT22;499;42.648;23.270;2022-10-16T10:04:43;14.20;19.40
1021;DHT22;499;42.648;23.270;2022-10-16T10:07:17;14.20;19.30
1021;DHT22;499;42.648;23.270;2022-10-16T10:09:46;14.10;19.50
1021;DHT22;499;42.648;23.270;2022-10-16T10:12:21;14.20;19.50
1021;DHT22;499;42.648;23.270;2022-10-16T10:14:50;14.30;20.00
1021;DHT22;499;42.648;23.270;2022-10-16T10:17:22;14.40;18.50
1021;DHT22;499;42.648;23.270;2022-10-16T10:19:52;14.50;18.50
1021;DHT22;499;42.648;23.270;2022-10-16T10:22:39;14.50;18.50
1021;DHT22;499;42.648;23.270;2022-10-16T10:25:20;14.50;17.30
1021;DHT22;499;42.648;23.270;2022-10-16T10:30:44;14.60;17.70
1021;DHT22;499;42.648;23.270;2022-10-16T10:33:24;14.60;18.60
1021;DHT22;499;42.648;23.270;2022-10-16T10:36:01;14.70;18.40
1021;DHT22;499;42.648;23.270;2022-10-16T10:38:39;14.80;18.20
1021;DHT22;499;42.648;23.270;2022-10-16T10:41:30;14.90;17.60
1021;DHT22;499;42.648;23.270;2022-10-16T10:44:06;15.00;16.60
1021;DHT22;499;42.648;23.270;2022-10-16T10:46:36;14.90;16.60
1021;DHT22;499;42.648;23.270;2022-10-16T10:49:37;14.90;17.40
1021;DHT22;499;42.648;23.270;2022-10-16T10:52:19;15.00;17.30
1021;DHT22;499;42.648;23.270;2022-10-16T10:54:57;15.10;17.00
1021;DHT22;499;42.648;23.270;2022-10-16T10:57:29;15.20;15.70
1021;DHT22;499;42.648;23.270;2022-10-16T11:00:06;15.30;16.50
1021;DHT22;499;42.648;23.270;2022-10-16T11:02:41;15.30;15.20
1021;DHT22;499;42.648;23.270;2022-10-16T11:05:27;15.30;15.00
1021;DHT22;499;42.648;23.270;2022-10-16T11:07:58;15.30;15.10
1021;DHT22;499;42.648;23.270;2022-10-16T11:10:30;15.30;15.90
1021;DHT22;499;42.648;23.270;2022-10-16T11:13:19;15.40;13.40
1021;DHT22;499;42.648;23.270;2022-10-16T11:15:48;15.40;14.50
1021;DHT22;499;42.648;23.270;2022-10-16T11:18:21;15.40;14.60
1021;DHT22;499;42.648;23.270;2022-10-16T11:20:53;15.50;14.00
1021;DHT22;499;42.648;23.270;2022-10-16T11:23:25;15.60;13.40
1021;DHT22;499;42.648;23.270;2022-10-16T11:25:56;15.60;13.10
1021;DHT22;499;42.648;23.270;2022-10-16T11:28:27;15.60;12.40
1021;DHT22;499;42.648;23.270;2022-10-16T11:30:59;15.60;12.60
1021;DHT22;499;42.648;23.270;2022-10-16T11:33:32;15.60;13.00
1021;DHT22;499;42.648;23.270;2022-10-16T11:36:06;15.60;13.00
1021;DHT22;499;42.648;23.270;2022-10-16T11:38:41;15.70;12.90
1021;DHT22;499;42.648;23.270;2022-10-16T11:41:16;15.70;10.80
1021;DHT22;499;42.648;23.270;2022-10-16T11:43:50;15.80;11.30
1021;DHT22;499;42.648;23.270;2022-10-16T11:46:22;15.90;11.40
1021;DHT22;499;42.648;23.270;2022-10-16T11:48:55;15.90;11.40
1021;DHT22;499;42.648;23.270;2022-10-16T11:51:29;16.00;10.20
1021;DHT22;499;42.648;23.270;2022-10-16T11:54:02;16.00;11.20
1021;DHT22;499;42.648;23.270;2022-10-16T11:56:33;15.90;9.30
1021;DHT22;499;42.648;23.270;2022-10-16T11:59:06;16.00;11.50
1021;DHT22;499;42.648;23.270;2022-10-16T12:01:40;16.10;10.30
1021;DHT22;499;42.648;23.270;2022-10-16T12:04:19;16.30;9.50
1021;DHT22;499;42.648;23.270;2022-10-16T12:06:52;16.30;10.10
1021;DHT22;499;42.648;23.270;2022-10-16T12:09:25;16.30;9.90
1021;DHT22;499;42.648;23.270;2022-10-16T12:11:54;16.30;10.60
1021;DHT22;499;42.648;23.270;2022-10-16T12:14:36;16.30;8.50
1021;DHT22;499;42.648;23.270;2022-10-16T12:19:57;16.40;10.60
1021;DHT22;499;42.648;23.270;2022-10-16T12:22:28;16.50;9.70
1021;DHT22;499;42.648;23.270;2022-10-16T12:24:55;16.60;9.10
1021;DHT22;499;42.648;23.270;2022-10-16T12:27:27;16.60;8.80
1021;DHT22;499;42.648;23.270;2022-10-16T12:29:56;16.70;9.20
1021;DHT22;499;42.648;23.270;2022-10-16T12:32:29;16.70;7.80
1021;DHT22;499;42.648;23.270;2022-10-16T12:34:57;16.50;9.60
1021;DHT22;499;42.648;23.270;2022-10-16T12:37:28;16.50;8.10
1021;DHT22;499;42.648;23.270;2022-10-16T12:39:59;16.40;8.90
1021;DHT22;499;42.648;23.270;2022-10-16T12:42:34;16.40;9.10
1021;DHT22;499;42.648;23.270;2022-10-16T12:45:22;16.40;9.90
1021;DHT22;499;42.648;23.270;2022-10-16T12:47:52;16.50;10.80
1021;DHT22;499;42.648;23.270;2022-10-16T12:50:25;16.50;9.30
1021;DHT22;499;42.648;23.270;2022-10-16T12:52:54;16.50;9.10
1021;DHT22;499;42.648;23.270;2022-10-16T12:55:22;16.60;9.90
1021;DHT22;499;42.648;23.270;2022-10-16T12:58:03;16.50;8.60
1021;DHT22;499;42.648;23.270;2022-10-16T13:00:38;16.40;8.60
1021;DHT22;499;42.648;23.270;2022-10-16T13:06:30;16.60;8.10
1021;DHT22;499;42.648;23.270;2022-10-16T13:12:18;16.50;8.70
1021;DHT22;499;42.648;23.270;2022-10-16T13:15:17;16.50;8.80
1021;DHT22;499;42.648;23.270;2022-10-16T13:17:50;16.50;9.40
1021;DHT22;499;42.648;23.270;2022-10-16T13:20:22;16.50;10.50
1021;DHT22;499;42.648;23.270;2022-10-16T13:22:59;16.80;10.30
1021;DHT22;499;42.648;23.270;2022-10-16T13:25:36;16.60;9.10
1021;DHT22;499;42.648;23.270;2022-10-16T13:28:10;16.60;10.20
1021;DHT22;499;42.648;23.270;2022-10-16T13:30:40;16.60;10.80
1021;DHT22;499;42.648;23.270;2022-10-16T13:33:14;16.60;10.20
1021;DHT22;499;42.648;23.270;2022-10-16T13:35:49;16.60;11.80
1021;DHT22;499;42.648;23.270;2022-10-16T13:38:19;16.60;11.90
1021;DHT22;499;42.648;23.270;2022-10-16T13:40:52;16.60;11.80
1021;DHT22;499;42.648;23.270;2022-10-16T13:43:24;16.70;11.40
1021;DHT22;499;42.648;23.270;2022-10-16T13:45:54;16.70;11.90
1021;DHT22;499;42.648;23.270;2022-10-16T13:48:21;16.70;11.70
1021;DHT22;499;42.648;23.270;2022-10-16T13:51:01;16.80;11.20
1021;DHT22;499;42.648;23.270;2022-10-16T13:53:31;16.80;12.00
1021;DHT22;499;42.648;23.270;2022-10-16T13:55:59;16.60;12.90
1021;DHT22;499;42.648;23.270;2022-10-16T13:58:28;16.60;12.40
1021;DHT22;499;42.648;23.270;2022-10-16T14:00:57;16.50;11.80
1021;DHT22;499;42.648;23.270;2022-10-16T14:03:25;16.60;12.60
1021;DHT22;499;42.648;23.270;2022-10-16T14:05:54;16.50;12.90
1021;DHT22;499;42.648;23.270;2022-10-16T14:08:23;16.40;13.00
1021;DHT22;499;42.648;23.270;2022-10-16T14:10:53;16.40;13.10
1021;DHT22;499;42.648;23.270;2022-10-16T14:13:28;16.40;12.90
1021;DHT22;499;42.648;23.270;2022-10-16T14:15:56;16.40;12.90
1021;DHT22;499;42.648;23.270;2022-10-16T14:18:27;16.40;13.40
1021;DHT22;499;42.648;23.270;2022-10-16T14:21:03;16.30;14.20
1021;DHT22;499;42.648;23.270;2022-10-16T14:23:32;16.20;15.00
1021;DHT22;499;42.648;23.270;2022-10-16T14:26:16;16.00;14.40
1021;DHT22;499;42.648;23.270;2022-10-16T14:28:46;15.80;15.40
1021;DHT22;499;42.648;23.270;2022-10-16T14:31:30;15.70;15.30
1021;DHT22;499;42.648;23.270;2022-10-16T14:33:58;15.50;15.20
1021;DHT22;499;42.648;23.270;2022-10-16T14:36:26;15.30;15.00
1021;DHT22;499;42.648;23.270;2022-10-16T14:39:00;15.30;15.40
1021;DHT22;499;42.648;23.270;2022-10-16T14:41:29;15.10;16.60
1021;DHT22;499;42.648;23.270;2022-10-16T14:44:02;15.10;17.30
1021;DHT22;499;42.648;23.270;2022-10-16T14:46:33;15.00;17.20
1021;DHT22;499;42.648;23.270;2022-10-16T14:49:04;14.50;18.50
1021;DHT22;499;42.648;23.270;2022-10-16T14:51:38;14.50;18.60
1021;DHT22;499;42.648;23.270;2022-10-16T14:54:07;14.40;19.40
1021;DHT22;499;42.648;23.270;2022-10-16T14:56:46;14.20;19.80
1021;DHT22;499;42.648;23.270;2022-10-16T14:59:18;14.10;20.40
1021;DHT22;499;42.648;23.270;2022-10-16T15:01:46;14.10;21.70
1021;DHT22;499;42.648;23.270;2022-10-16T15:04:14;14.00;22.10
1021;DHT22;499;42.648;23.270;2022-10-16T15:06:42;13.90;22.00
1021;DHT22;499;42.648;23.270;2022-10-16T15:09:09;13.80;21.90
1021;DHT22;499;42.648;23.270;2022-10-16T15:11:36;13.70;21.30
1021;DHT22;499;42.648;23.270;2022-10-16T15:14:04;13.70;21.90
1021;DHT22;499;42.648;23.270;2022-10-16T15:16:32;13.50;21.80
1021;DHT22;499;42.648;23.270;2022-10-16T15:18:59;13.40;22.20
1021;DHT22;499;42.648;23.270;2022-10-16T15:21:28;13.40;23.10
1021;DHT22;499;42.648;23.270;2022-10-16T15:23:56;13.30;23.80
1021;DHT22;499;42.648;23.270;2022-10-16T15:26:24;13.30;23.20
1021;DHT22;499;42.648;23.270;2022-10-16T15:28:51;13.20;23.50
1021;DHT22;499;42.648;23.270;2022-10-16T15:31:19;13.20;22.30
1021;DHT22;499;42.648;23.270;2022-10-16T15:33:49;13.10;22.30
1021;DHT22;499;42.648;23.270;2022-10-16T15:36:25;13.10;22.50
1021;DHT22;499;42.648;23.270;2022-10-16T15:38:52;13.10;21.50
1021;DHT22;499;42.648;23.270;2022-10-16T15:41:20;13.00;21.40
1021;DHT22;499;42.648;23.270;2022-10-16T15:43:48;12.90;22.60
1021;DHT22;499;42.648;23.270;2022-10-16T15:46:19;12.80;23.70
1021;DHT22;499;42.648;23.270;2022-10-16T15:48:48;12.60;25.00
1021;DHT22;499;42.648;23.270;2022-10-16T15:51:16;12.60;25.00
1021;DHT22;499;42.648;23.270;2022-10-16T15:53:44;12.40;24.90
1021;DHT22;499;42.648;23.270;2022-10-16T15:56:13;12.30;25.50
1021;DHT22;499;42.648;23.270;2022-10-16T15:58:40;12.20;25.80
1021;DHT22;499;42.648;23.270;2022-10-16T16:01:07;12.10;27.10
1021;DHT22;499;42.648;23.270;2022-10-16T16:03:38;12.00;27.50
1021;DHT22;499;42.648;23.270;2022-10-16T16:06:09;11.90;28.40
1021;DHT22;499;42.648;23.270;2022-10-16T16:08:38;11.80;29.00
1021;DHT22;499;42.648;23.270;2022-10-16T16:11:07;11.70;29.50
1021;DHT22;499;42.648;23.270;2022-10-16T16:13:35;11.60;30.60
1021;DHT22;499;42.648;23.270;2022-10-16T16:16:06;11.60;30.30
1021;DHT22;499;42.648;23.270;2022-10-16T16:18:34;11.50;31.10
1021;DHT22;499;42.648;23.270;2022-10-16T16:21:01;11.40;32.20
1021;DHT22;499;42.648;23.270;2022-10-16T16:23:31;11.40;33.00
1021;DHT22;499;42.648;23.270;2022-10-16T16:26:04;11.30;33.30
1021;DHT22;499;42.648;23.270;2022-10-16T16:28:32;11.10;35.10
1021;DHT22;499;42.648;23.270;2022-10-16T16:30:59;11.00;35.90
1021;DHT22;499;42.648;23.270;2022-10-16T16:33:26;10.90;36.50
1021;DHT22;499;42.648;23.270;2022-10-16T16:35:56;10.80;37.00
1021;DHT22;499;42.648;23.270;2022-10-16T16:38:24;10.80;38.40
1021;DHT22;499;42.648;23.270;2022-10-16T16:40:53;10.70;39.50
1021;DHT22;499;42.648;23.270;2022-10-16T16:43:23;10.60;39.20
1021;DHT22;499;42.648;23.270;2022-10-16T16:45:51;10.60;40.00